Time;durP1;ratioP1;P1;durP2;ratioP2;P2;SDS_P1;SDS_P2;PMS_P1;PMS_P2;Temp;Humidity;BMP_temperature;BMP_pressure;BME280_temperature;BME280_humidity;BME280_pressure;Samples;Min_cycle;Max_cycle;Signal;HPM_P1;HPM_P2
2022/08/05 00:02:19;;;;;;;5.93;5.53;;;24.10;99.90;;;;;;5021456;28;20429;-70
2022/08/05 00:04:45;;;;;;;5.80;5.30;;;24.10;99.90;;;;;;5037562;28;20574;-70
2022/08/05 00:07:11;;;;;;;5.63;5.27;;;24.00;99.90;;;;;;5035475;28;20633;-70
2022/08/05 00:09:36;;;;;;;5.50;5.10;;;24.10;99.90;;;;;;5026062;28;20190;-71
2022/08/05 00:12:02;;;;;;;5.40;4.73;;;24.00;99.90;;;;;;5033870;28;20178;-70
2022/08/05 00:14:28;;;;;;;8.03;6.17;;;24.00;99.90;;;;;;5032458;28;20181;-72
2022/08/05 00:16:54;;;;;;;7.33;6.33;;;24.00;99.90;;;;;;5026334;28;20432;-70
2022/08/05 00:19:23;;;;;;;6.33;5.80;;;23.90;99.90;;;;;;5018248;28;20210;-69
2022/08/05 00:21:48;;;;;;;9.87;6.27;;;23.60;99.90;;;;;;5032813;28;20273;-70
2022/08/05 00:24:14;;;;;;;5.53;5.03;;;23.50;99.90;;;;;;5028754;28;20575;-70
2022/08/05 00:26:40;;;;;;;6.20;5.70;;;23.40;99.90;;;;;;5026635;28;20264;-70
2022/08/05 00:29:08;;;;;;;6.30;5.70;;;23.30;99.90;;;;;;5040563;28;20297;-70
2022/08/05 00:31:34;;;;;;;6.17;5.60;;;23.20;99.90;;;;;;5033800;28;20897;-71
2022/08/05 00:33:59;;;;;;;6.63;6.13;;;23.00;99.90;;;;;;5036041;28;20183;-70
2022/08/05 00:36:25;;;;;;;6.10;5.67;;;23.00;99.90;;;;;;5032750;28;20195;-70
2022/08/05 00:38:51;;;;;;;5.97;5.40;;;22.90;99.90;;;;;;5011583;28;20768;-70
2022/08/05 00:41:32;;;;;;;6.40;5.90;;;22.90;99.90;;;;;;5026423;28;20186;-70
2022/08/05 00:43:58;;;;;;;6.63;5.53;;;23.00;99.90;;;;;;5034628;28;20210;-70
2022/08/05 00:46:24;;;;;;;6.17;5.57;;;23.00;99.90;;;;;;5033144;28;20405;-70
2022/08/05 00:48:51;;;;;;;6.53;5.50;;;23.10;99.90;;;;;;5042125;28;20425;-70
2022/08/05 00:51:17;;;;;;;6.90;6.23;;;23.10;99.90;;;;;;5021868;28;20473;-72
2022/08/05 00:53:43;;;;;;;5.57;5.17;;;23.20;99.90;;;;;;5019975;28;20446;-70
2022/08/05 00:56:09;;;;;;;6.00;5.60;;;23.10;99.90;;;;;;5015731;28;20884;-70
2022/08/05 00:58:35;;;;;;;5.83;5.30;;;23.20;99.90;;;;;;5024318;28;20236;-71
2022/08/05 01:01:01;;;;;;;6.47;5.87;;;23.20;99.90;;;;;;5033285;28;20642;-70
2022/08/05 01:03:29;;;;;;;6.53;6.00;;;23.20;99.90;;;;;;5042338;28;20436;-70
2022/08/05 01:05:55;;;;;;;7.27;6.00;;;23.20;99.90;;;;;;5031021;28;20722;-70
2022/08/05 01:08:21;;;;;;;5.40;4.90;;;23.20;99.90;;;;;;5022396;28;20441;-70
2022/08/05 01:10:54;;;;;;;7.40;6.37;;;23.20;99.90;;;;;;5026908;28;20429;-71
2022/08/05 01:13:36;;;;;;;6.47;5.80;;;23.20;99.90;;;;;;5034152;28;20445;-70
2022/08/05 01:16:07;;;;;;;5.60;5.20;;;23.20;99.90;;;;;;5023442;28;20433;-70
2022/08/05 01:18:39;;;;;;;5.47;5.17;;;23.20;99.90;;;;;;5034308;28;20417;-72
2022/08/05 01:21:33;;;;;;;5.80;5.40;;;23.20;99.90;;;;;;5036377;28;20436;-70
2022/08/05 01:24:24;;;;;;;6.37;5.87;;;23.20;99.90;;;;;;5045790;28;20463;-72
2022/08/05 01:27:05;;;;;;;6.03;5.27;;;23.10;99.90;;;;;;5027583;28;20526;-69
2022/08/05 01:29:36;;;;;;;5.23;4.93;;;23.10;99.90;;;;;;5033912;28;20646;-70
2022/08/05 01:32:08;;;;;;;5.70;5.20;;;23.10;99.90;;;;;;5033840;28;20467;-70
2022/08/05 01:34:41;;;;;;;5.27;4.77;;;23.00;99.90;;;;;;5044572;28;20493;-71
2022/08/05 01:37:15;;;;;;;5.30;4.90;;;23.00;99.90;;;;;;5031272;28;20689;-70
2022/08/05 01:39:44;;;;;;;5.60;5.00;;;23.00;99.90;;;;;;5029704;28;20437;-70
2022/08/05 01:42:13;;;;;;;5.40;4.90;;;23.00;99.90;;;;;;5028195;28;20437;-70
2022/08/05 01:44:39;;;;;;;4.80;4.50;;;23.00;99.90;;;;;;5032162;28;20473;-70
2022/08/05 01:47:06;;;;;;;5.50;5.20;;;23.00;99.90;;;;;;5017825;28;20438;-70
2022/08/05 01:49:33;;;;;;;5.40;4.60;;;23.00;99.90;;;;;;5028974;28;21051;-70
2022/08/05 01:52:02;;;;;;;5.50;5.00;;;23.00;99.90;;;;;;5031674;28;20465;-70
2022/08/05 01:54:51;;;;;;;6.10;5.60;;;23.10;99.90;;;;;;5031353;28;20445;-72
2022/08/05 01:57:27;;;;;;;5.60;5.10;;;23.00;99.90;;;;;;5029908;28;20951;-70
2022/08/05 01:59:57;;;;;;;5.43;4.93;;;23.00;99.90;;;;;;5036800;28;20446;-70
2022/08/05 02:02:23;;;;;;;5.90;5.50;;;23.00;99.90;;;;;;5028598;28;20440;-70
2022/08/05 02:04:51;;;;;;;5.90;5.50;;;23.00;99.90;;;;;;5030598;28;20536;-70
2022/08/05 02:07:17;;;;;;;5.37;5.07;;;23.00;99.90;;;;;;5025197;28;20955;-70
2022/08/05 02:09:44;;;;;;;6.03;5.17;;;23.00;99.90;;;;;;5034816;28;20461;-70
2022/08/05 02:12:45;;;;;;;4.53;4.20;;;23.00;99.90;;;;;;5040728;28;20186;-70
2022/08/05 02:15:26;;;;;;;4.03;3.73;;;22.90;99.90;;;;;;5043948;28;20441;-70
2022/08/05 02:18:09;;;;;;;4.73;4.30;;;23.00;99.90;;;;;;5025442;28;20438;-70
2022/08/05 02:20:46;;;;;;;4.77;4.37;;;23.00;99.90;;;;;;5016814;28;20437;-70
2022/08/05 02:23:13;;;;;;;4.60;4.30;;;23.00;99.90;;;;;;5033509;28;20455;-70
2022/08/05 02:25:41;;;;;;;5.50;4.20;;;23.00;99.90;;;;;;5032232;28;20464;-72
2022/08/05 02:28:09;;;;;;;4.50;4.20;;;23.00;99.90;;;;;;5032851;28;20436;-70
2022/08/05 02:30:47;;;;;;;4.20;3.87;;;23.00;99.90;;;;;;5028898;28;20444;-70
2022/08/05 02:33:17;;;;;;;4.67;4.37;;;23.00;99.90;;;;;;5035755;28;20436;-70
2022/08/05 02:35:44;;;;;;;5.23;4.80;;;23.00;99.90;;;;;;5019923;28;20940;-70
2022/08/05 02:38:12;;;;;;;9.17;4.63;;;23.00;99.90;;;;;;5031808;28;20437;-70
2022/08/05 02:40:41;;;;;;;5.00;4.57;;;23.00;99.90;;;;;;5029377;28;20444;-71
2022/08/05 02:43:10;;;;;;;4.30;4.00;;;23.00;99.90;;;;;;5032045;28;20433;-70
2022/08/05 02:45:38;;;;;;;5.10;4.60;;;23.00;99.90;;;;;;5026473;28;20988;-72
2022/08/05 02:48:04;;;;;;;5.17;4.80;;;23.10;99.90;;;;;;5027213;28;20487;-70
2022/08/05 02:50:30;;;;;;;5.37;4.97;;;23.10;99.90;;;;;;5046500;28;20479;-71
2022/08/05 02:52:57;;;;;;;8.03;4.60;;;23.20;99.90;;;;;;5028115;28;20870;-70
2022/08/05 02:55:23;;;;;;;5.23;4.93;;;23.20;99.90;;;;;;5012068;28;20426;-72
2022/08/05 02:57:50;;;;;;;5.70;5.23;;;23.30;99.90;;;;;;5030062;28;20413;-71
2022/08/05 03:00:16;;;;;;;5.53;5.23;;;23.30;99.90;;;;;;5029380;28;20524;-71
2022/08/05 03:02:44;;;;;;;4.17;3.87;;;23.30;99.90;;;;;;5027277;28;20505;-72
2022/08/05 03:05:11;;;;;;;4.90;4.50;;;23.40;99.90;;;;;;5032329;28;20971;-70
2022/08/05 03:07:38;;;;;;;5.60;5.20;;;23.40;99.90;;;;;;5027623;28;20433;-72
2022/08/05 03:10:04;;;;;;;5.50;5.17;;;23.30;99.90;;;;;;5032035;28;20512;-72
2022/08/05 03:12:35;;;;;;;5.90;5.50;;;23.30;99.90;;;;;;5014962;28;20588;-69
2022/08/05 03:15:01;;;;;;;5.13;4.70;;;23.30;99.90;;;;;;5017391;28;20519;-70
2022/08/05 03:17:29;;;;;;;5.27;4.87;;;23.20;99.90;;;;;;5039400;28;20946;-70
2022/08/05 03:19:55;;;;;;;4.80;4.50;;;23.20;99.90;;;;;;5038774;28;20185;-70
2022/08/05 03:22:21;;;;;;;5.60;5.20;;;23.20;99.90;;;;;;5037004;28;20444;-70
2022/08/05 03:24:50;;;;;;;6.13;5.47;;;23.20;99.90;;;;;;5020638;28;20303;-70
2022/08/05 03:27:17;;;;;;;6.17;5.20;;;23.20;99.90;;;;;;5030662;28;20185;-70
2022/08/05 03:29:44;;;;;;;5.10;4.57;;;23.20;99.90;;;;;;5029333;28;20457;-72
2022/08/05 03:32:10;;;;;;;5.80;5.37;;;23.10;99.90;;;;;;5031734;28;20786;-70
2022/08/05 03:34:36;;;;;;;5.77;5.27;;;23.10;99.90;;;;;;5041284;28;20443;-69
2022/08/05 03:37:04;;;;;;;5.90;5.47;;;23.10;99.90;;;;;;5021294;28;20428;-69
2022/08/05 03:39:30;;;;;;;6.70;6.20;;;23.10;99.90;;;;;;5027272;28;20435;-69
2022/08/05 03:41:56;;;;;;;6.07;5.67;;;23.10;99.90;;;;;;5018083;28;20792;-70
2022/08/05 03:44:25;;;;;;;7.63;6.40;;;23.10;99.90;;;;;;5035881;28;20483;-70
2022/08/05 03:46:51;;;;;;;6.27;5.77;;;23.10;99.90;;;;;;5031654;28;20469;-70
2022/08/05 03:49:17;;;;;;;6.13;5.70;;;23.00;99.90;;;;;;5027915;28;20487;-70
2022/08/05 03:51:57;;;;;;;7.13;6.70;;;22.90;99.90;;;;;;5026419;28;20244;-72
2022/08/05 03:54:31;;;;;;;7.30;6.70;;;22.70;99.90;;;;;;5013577;28;20309;-70
2022/08/05 03:56:58;;;;;;;6.70;6.30;;;22.30;99.90;;;;;;5018856;28;20440;-70
2022/08/05 03:59:29;;;;;;;7.60;6.93;;;22.10;99.90;;;;;;5011454;28;20956;-70
2022/08/05 04:01:57;;;;;;;8.07;7.37;;;22.00;99.90;;;;;;5029620;28;20425;-69
2022/08/05 04:04:23;;;;;;;7.20;6.70;;;22.00;99.90;;;;;;5023288;28;20476;-70
2022/08/05 04:06:50;;;;;;;8.30;7.67;;;22.00;99.90;;;;;;5027261;28;20446;-70
2022/08/05 04:09:17;;;;;;;7.00;6.50;;;22.00;99.90;;;;;;5036898;28;20470;-70
2022/08/05 04:11:43;;;;;;;9.70;8.80;;;21.90;99.90;;;;;;5027964;28;20448;-71
2022/08/05 04:14:10;;;;;;;8.37;7.77;;;21.80;99.90;;;;;;5022066;28;20530;-70
2022/08/05 04:16:36;;;;;;;7.90;7.20;;;21.90;99.90;;;;;;5025120;28;20547;-70
2022/08/05 04:19:02;;;;;;;8.47;7.77;;;21.90;99.90;;;;;;5029709;28;21354;-70
2022/08/05 04:21:29;;;;;;;7.00;6.50;;;22.00;99.90;;;;;;5026443;28;20467;-70
2022/08/05 04:23:55;;;;;;;8.07;7.30;;;22.10;99.90;;;;;;5011106;28;20429;-70
2022/08/05 04:26:20;;;;;;;7.63;7.03;;;22.10;99.90;;;;;;5031234;28;20437;-70
2022/08/05 04:28:46;;;;;;;8.50;7.70;;;22.10;99.90;;;;;;5046791;28;20806;-72
2022/08/05 04:31:12;;;;;;;9.33;8.60;;;22.20;99.90;;;;;;5023087;28;20250;-70
2022/08/05 04:33:37;;;;;;;10.70;8.63;;;22.20;99.90;;;;;;5015224;28;20229;-70
2022/08/05 04:36:03;;;;;;;9.30;8.40;;;22.20;99.90;;;;;;5025820;28;20270;-70
2022/08/05 04:38:29;;;;;;;7.90;7.20;;;22.20;99.90;;;;;;5033918;28;20680;-70
2022/08/05 04:40:55;;;;;;;8.20;7.60;;;22.20;99.90;;;;;;5033724;28;20179;-70
2022/08/05 04:43:20;;;;;;;8.07;7.47;;;22.10;99.90;;;;;;5040047;28;20184;-70
2022/08/05 04:45:46;;;;;;;7.90;7.40;;;22.20;99.90;;;;;;5032476;28;20226;-72
2022/08/05 04:48:13;;;;;;;8.80;8.00;;;22.20;99.90;;;;;;5034364;28;20182;-69
2022/08/05 04:50:41;;;;;;;8.20;7.43;;;22.20;99.90;;;;;;5040902;28;20707;-70
2022/08/05 04:53:09;;;;;;;7.77;7.07;;;22.20;99.90;;;;;;5026305;28;21054;-72
2022/08/05 04:55:36;;;;;;;6.60;6.07;;;22.20;99.90;;;;;;5028522;28;20948;-72
2022/08/05 04:58:04;;;;;;;7.03;6.40;;;22.40;99.90;;;;;;5023376;28;20435;-72
2022/08/05 05:00:30;;;;;;;8.60;7.80;;;22.60;99.90;;;;;;5036631;28;20836;-72
2022/08/05 05:02:56;;;;;;;8.10;7.30;;;22.80;99.90;;;;;;5025466;28;20514;-72
2022/08/05 05:05:22;;;;;;;8.87;7.30;;;23.00;99.90;;;;;;5026040;28;20465;-72
2022/08/05 05:07:48;;;;;;;7.00;5.93;;;23.10;99.90;;;;;;5026648;28;20183;-73
2022/08/05 05:10:13;;;;;;;6.63;6.00;;;23.20;99.90;;;;;;5029483;28;20296;-69
2022/08/05 05:12:39;;;;;;;6.43;4.63;;;23.40;99.90;;;;;;5028910;28;20244;-68
2022/08/05 05:15:05;;;;;;;9.10;5.53;;;23.70;99.90;;;;;;5030655;28;20975;-68
2022/08/05 05:17:42;;;;;;;6.20;5.70;;;23.90;99.90;;;;;;5027370;28;20517;-69
2022/08/05 05:20:10;;;;;;;9.27;7.47;;;24.10;99.90;;;;;;5024859;28;20432;-68
2022/08/05 05:22:39;;;;;;;8.50;7.30;;;24.30;99.90;;;;;;5018836;28;20528;-68
2022/08/05 05:25:05;;;;;;;8.23;6.33;;;24.40;99.90;;;;;;5031774;28;20495;-68
2022/08/05 05:27:33;;;;;;;17.10;13.17;;;24.50;99.90;;;;;;5033237;28;20482;-70
2022/08/05 05:29:59;;;;;;;14.10;9.50;;;24.60;99.90;;;;;;5019527;28;20437;-70
2022/08/05 05:32:25;;;;;;;10.90;8.20;;;24.70;99.90;;;;;;5028017;28;20520;-72
2022/08/05 05:34:51;;;;;;;9.30;8.20;;;24.70;99.90;;;;;;5033144;28;20838;-72
2022/08/05 05:37:16;;;;;;;10.23;9.20;;;24.80;99.90;;;;;;5022073;28;20182;-70
2022/08/05 05:39:42;;;;;;;10.60;9.13;;;24.90;99.90;;;;;;5034095;28;20425;-72
2022/08/05 05:42:08;;;;;;;9.43;8.20;;;24.90;99.90;;;;;;5031541;28;20186;-71
2022/08/05 05:44:34;;;;;;;7.87;7.27;;;24.90;99.90;;;;;;5027531;28;20988;-71
2022/08/05 05:47:00;;;;;;;9.23;8.63;;;24.90;99.90;;;;;;5023917;28;20961;-71
2022/08/05 05:49:26;;;;;;;8.90;7.40;;;24.90;99.90;;;;;;5024279;28;20175;-72
2022/08/05 05:51:53;;;;;;;7.60;6.90;;;24.90;99.90;;;;;;5022631;28;20480;-74
2022/08/05 05:54:18;;;;;;;9.10;8.37;;;25.00;99.90;;;;;;5042228;28;20440;-71
2022/08/05 05:56:44;;;;;;;8.60;7.80;;;25.00;99.90;;;;;;5030157;28;20455;-71
2022/08/05 05:59:10;;;;;;;8.40;7.70;;;25.00;99.90;;;;;;5015559;28;20313;-71
2022/08/05 06:01:37;;;;;;;9.27;8.60;;;25.00;99.90;;;;;;5026456;28;20190;-72
2022/08/05 06:04:04;;;;;;;7.80;7.27;;;25.00;99.90;;;;;;5027231;28;20348;-72
2022/08/05 06:06:29;;;;;;;9.93;9.20;;;25.00;99.90;;;;;;5024184;28;20517;-73
2022/08/05 06:08:55;;;;;;;9.53;8.83;;;25.00;99.90;;;;;;5039775;28;20514;-73
2022/08/05 06:11:21;;;;;;;11.63;10.63;;;25.00;99.90;;;;;;5041728;28;20183;-72
2022/08/05 06:13:46;;;;;;;11.47;10.57;;;25.00;99.90;;;;;;5023926;28;20209;-72
2022/08/05 06:16:12;;;;;;;12.60;11.50;;;25.00;99.90;;;;;;5014408;28;20665;-72
2022/08/05 06:18:38;;;;;;;13.90;12.70;;;25.10;99.90;;;;;;5011447;28;20225;-73
2022/08/05 06:21:04;;;;;;;12.93;12.00;;;25.10;99.90;;;;;;5029277;28;20608;-72
2022/08/05 06:23:30;;;;;;;13.60;12.40;;;25.10;99.90;;;;;;5016071;28;20191;-72
2022/08/05 06:25:56;;;;;;;12.43;11.53;;;25.00;99.90;;;;;;5021364;28;20207;-72
2022/08/05 06:28:22;;;;;;;13.80;12.40;;;25.00;99.90;;;;;;5023251;28;20434;-72
2022/08/05 06:30:48;;;;;;;15.37;13.97;;;25.00;99.90;;;;;;5018638;28;20183;-73
2022/08/05 06:33:13;;;;;;;14.87;13.57;;;24.90;99.90;;;;;;5022910;28;20179;-72
2022/08/05 06:35:39;;;;;;;15.93;14.60;;;24.90;99.90;;;;;;5025377;28;20658;-72
2022/08/05 06:38:05;;;;;;;16.03;14.63;;;24.90;99.90;;;;;;4998703;28;20281;-72
2022/08/05 06:40:30;;;;;;;17.80;16.40;;;24.90;99.90;;;;;;5026053;28;20190;-73
2022/08/05 06:42:56;;;;;;;20.43;18.57;;;24.80;99.90;;;;;;5033953;28;20182;-72
2022/08/05 06:45:22;;;;;;;17.50;16.10;;;24.70;99.90;;;;;;5036232;28;20209;-71
2022/08/05 06:47:51;;;;;;;20.83;18.97;;;24.60;99.90;;;;;;5025103;28;20660;-72
2022/08/05 06:50:17;;;;;;;22.27;20.17;;;24.60;99.90;;;;;;5025720;28;20272;-72
2022/08/05 06:52:43;;;;;;;23.30;21.10;;;24.50;99.90;;;;;;5044672;28;20586;-72
2022/08/05 06:55:09;;;;;;;17.73;16.23;;;24.50;99.90;;;;;;5031728;28;20897;-71
2022/08/05 06:57:34;;;;;;;13.93;12.67;;;24.50;99.90;;;;;;5027873;28;20262;-71
2022/08/05 07:00:02;;;;;;;17.23;15.57;;;24.50;99.90;;;;;;5026509;28;20312;-70
2022/08/05 07:02:28;;;;;;;14.93;13.57;;;24.60;99.90;;;;;;5031768;28;20188;-73
2022/08/05 07:04:54;;;;;;;15.30;13.50;;;24.60;99.90;;;;;;5025892;28;20599;-80
2022/08/05 07:07:20;;;;;;;31.43;16.27;;;24.70;99.90;;;;;;5026276;28;20567;-73
2022/08/05 07:09:45;;;;;;;17.80;16.13;;;24.70;99.90;;;;;;5033680;28;20174;-74
2022/08/05 07:16:48;;;;;;;17.53;15.83;;;24.70;99.90;;;;;;5030528;28;20177;-70
2022/08/05 07:17:41;;;;;;;22.70;17.80;;;24.70;99.90;;;;;;5025227;28;20428;-70
2022/08/05 07:20:07;;;;;;;20.53;18.40;;;24.70;99.90;;;;;;5015021;28;20496;-71
2022/08/05 07:22:33;;;;;;;23.37;20.07;;;24.70;99.90;;;;;;5019928;28;20297;-70
2022/08/05 07:25:02;;;;;;;21.70;19.40;;;24.70;99.90;;;;;;5014699;28;21000;-70
2022/08/05 07:27:28;;;;;;;30.47;21.77;;;24.70;99.90;;;;;;5012641;28;20186;-69
2022/08/05 07:29:57;;;;;;;22.60;20.53;;;24.60;99.90;;;;;;5018203;28;20500;-71
2022/08/05 07:32:22;;;;;;;21.27;19.07;;;24.50;99.90;;;;;;5014299;28;20262;-69
2022/08/05 07:34:50;;;;;;;18.23;16.43;;;24.40;99.90;;;;;;5019569;28;20526;-69
2022/08/05 07:37:16;;;;;;;17.70;15.90;;;24.30;99.90;;;;;;5017986;28;20191;-69
2022/08/05 07:39:42;;;;;;;16.57;15.07;;;24.30;99.90;;;;;;5028422;28;20437;-69
2022/08/05 07:42:07;;;;;;;18.93;15.93;;;24.30;99.90;;;;;;5018497;28;20651;-69
2022/08/05 07:44:33;;;;;;;15.57;13.50;;;24.30;99.90;;;;;;5020742;28;20222;-69
2022/08/05 07:46:59;;;;;;;13.43;10.53;;;24.30;99.90;;;;;;5020542;28;20321;-71
2022/08/05 07:49:25;;;;;;;11.57;10.57;;;24.30;99.90;;;;;;5018650;28;20209;-70
2022/08/05 07:51:50;;;;;;;10.97;10.10;;;24.20;99.90;;;;;;5009794;28;20361;-69
2022/08/05 07:54:16;;;;;;;12.70;11.60;;;24.10;99.90;;;;;;5016204;28;20190;-68
2022/08/05 07:56:42;;;;;;;12.47;10.80;;;24.10;99.90;;;;;;5025743;28;20201;-68
2022/08/05 07:59:07;;;;;;;11.07;10.07;;;24.10;99.90;;;;;;5017825;28;20182;-70
2022/08/05 08:01:33;;;;;;;13.00;10.67;;;24.10;99.90;;;;;;5022063;28;20214;-70
2022/08/05 08:03:59;;;;;;;11.77;10.67;;;24.10;99.90;;;;;;5023318;28;20239;-72
2022/08/05 08:06:24;;;;;;;11.87;10.77;;;24.20;99.90;;;;;;5042298;28;20186;-70
2022/08/05 08:08:50;;;;;;;12.67;10.97;;;24.10;99.90;;;;;;5023262;28;20187;-70
2022/08/05 08:11:16;;;;;;;12.43;11.30;;;24.10;99.90;;;;;;5023191;28;20214;-71
2022/08/05 08:13:42;;;;;;;13.23;12.07;;;24.10;99.90;;;;;;5033955;28;20256;-71
2022/08/05 08:16:07;;;;;;;14.40;13.00;;;24.10;99.90;;;;;;5021417;28;20187;-71
2022/08/05 08:18:33;;;;;;;16.00;14.53;;;24.10;99.90;;;;;;5031659;28;20197;-69
2022/08/05 08:20:59;;;;;;;15.60;14.30;;;24.10;99.90;;;;;;5034421;28;20178;-71
2022/08/05 08:23:24;;;;;;;16.60;15.20;;;24.10;99.90;;;;;;5028377;28;20210;-69
2022/08/05 08:25:50;;;;;;;16.77;15.17;;;24.10;99.90;;;;;;5025248;28;20248;-69
2022/08/05 08:28:16;;;;;;;16.60;15.00;;;24.10;99.90;;;;;;4984891;28;21032;-69
2022/08/05 08:30:42;;;;;;;16.40;14.80;;;24.10;99.90;;;;;;4982300;28;20447;-70
2022/08/05 08:33:09;;;;;;;18.83;17.43;;;24.10;99.90;;;;;;4978121;28;20571;-69
2022/08/05 08:35:37;;;;;;;18.30;16.70;;;24.10;99.90;;;;;;4982688;28;20653;-69
2022/08/05 08:38:03;;;;;;;18.50;16.80;;;24.10;99.90;;;;;;4983378;28;20435;-71
2022/08/05 08:40:33;;;;;;;16.70;15.27;;;24.00;99.90;;;;;;4976192;28;20443;-69
2022/08/05 08:42:59;;;;;;;14.90;13.70;;;24.00;99.90;;;;;;4971492;28;20192;-72
2022/08/05 08:45:25;;;;;;;15.40;14.03;;;24.00;99.90;;;;;;4974087;28;20461;-71
2022/08/05 08:47:52;;;;;;;13.90;12.50;;;23.90;99.90;;;;;;4980181;28;20862;-71
2022/08/05 08:50:19;;;;;;;12.67;11.77;;;23.90;99.90;;;;;;4987083;28;20551;-71
2022/08/05 08:52:58;;;;;;;19.57;14.70;;;23.80;99.90;;;;;;4985534;28;20447;-69
2022/08/05 08:55:23;;;;;;;19.50;15.10;;;23.80;99.90;;;;;;4979974;28;20439;-70
2022/08/05 08:57:49;;;;;;;12.80;11.60;;;23.80;99.90;;;;;;4981203;28;20490;-70
2022/08/05 09:00:15;;;;;;;13.03;11.87;;;23.80;99.90;;;;;;5023356;28;20638;-71
2022/08/05 09:02:41;;;;;;;13.10;11.80;;;23.80;99.90;;;;;;5021244;28;20539;-71
2022/08/05 09:05:11;;;;;;;13.63;12.20;;;23.80;99.90;;;;;;5018455;28;20472;-70
2022/08/05 09:07:36;;;;;;;11.43;10.50;;;23.80;99.90;;;;;;5020158;28;20512;-70
2022/08/05 09:10:03;;;;;;;12.50;11.40;;;23.80;99.90;;;;;;5025061;28;20433;-72
2022/08/05 09:12:29;;;;;;;10.20;9.40;;;23.80;99.90;;;;;;5024989;28;20178;-71
2022/08/05 09:14:55;;;;;;;10.87;9.97;;;23.90;99.90;;;;;;5033251;28;20524;-71
2022/08/05 09:17:21;;;;;;;12.33;11.23;;;23.90;99.90;;;;;;5030945;28;20764;-70
2022/08/05 09:19:47;;;;;;;12.37;11.27;;;23.90;99.90;;;;;;5031698;28;20438;-71
2022/08/05 09:22:13;;;;;;;12.23;10.57;;;23.80;99.90;;;;;;5019959;28;20425;-70
2022/08/05 09:24:39;;;;;;;12.13;11.00;;;23.80;99.90;;;;;;5025908;28;20207;-70
2022/08/05 09:27:08;;;;;;;12.30;11.40;;;23.80;99.90;;;;;;5018473;28;20435;-71
2022/08/05 09:29:44;;;;;;;10.97;10.03;;;23.60;99.90;;;;;;5019573;28;20206;-68
2022/08/05 09:32:11;;;;;;;11.90;11.00;;;23.50;99.90;;;;;;5018250;28;20445;-71
2022/08/05 09:34:54;;;;;;;10.60;9.80;;;23.40;99.90;;;;;;5023681;28;20878;-71
2022/08/05 09:37:24;;;;;;;10.80;9.80;;;23.30;99.90;;;;;;5018762;28;21125;-70
2022/08/05 09:39:50;;;;;;;9.57;8.70;;;23.20;99.90;;;;;;5022353;28;20428;-72
2022/08/05 09:42:18;;;;;;;9.87;9.03;;;23.30;99.90;;;;;;5027496;28;20436;-72
2022/08/05 09:44:46;;;;;;;10.80;9.80;;;23.30;99.90;;;;;;5022800;28;20474;-70
2022/08/05 09:47:21;;;;;;;10.13;8.90;;;23.40;99.90;;;;;;5031328;28;20431;-70
2022/08/05 09:49:57;;;;;;;10.30;8.70;;;23.50;99.90;;;;;;5024893;28;20428;-69
2022/08/05 09:52:28;;;;;;;8.87;8.17;;;23.50;99.90;;;;;;5032041;28;20413;-67
2022/08/05 09:54:58;;;;;;;9.83;8.83;;;23.50;99.90;;;;;;5027438;28;20448;-68
2022/08/05 09:57:46;;;;;;;8.90;8.17;;;23.50;99.90;;;;;;5030494;28;20873;-67
2022/08/05 10:00:14;;;;;;;9.60;7.97;;;23.30;99.90;;;;;;5023701;28;20944;-68
2022/08/05 10:02:45;;;;;;;6.90;6.30;;;23.10;99.90;;;;;;5022513;28;20434;-67
2022/08/05 10:05:12;;;;;;;7.53;6.83;;;22.90;99.90;;;;;;5017209;28;20469;-70
2022/08/05 10:07:43;;;;;;;7.27;6.53;;;22.70;99.90;;;;;;5025206;28;20865;-72
2022/08/05 10:10:09;;;;;;;6.63;6.13;;;22.50;99.90;;;;;;5018745;28;20432;-68
2022/08/05 10:12:53;;;;;;;8.03;6.30;;;22.30;99.90;;;;;;5019295;28;20435;-68
2022/08/05 10:15:29;;;;;;;6.80;6.30;;;22.10;99.90;;;;;;5025534;28;20438;-68
2022/08/05 10:18:11;;;;;;;9.40;8.40;;;22.00;99.90;;;;;;5025113;28;20445;-68
2022/08/05 10:20:43;;;;;;;8.77;8.07;;;21.90;99.90;;;;;;5024394;28;20495;-67
2022/08/05 10:23:12;;;;;;;7.40;6.80;;;21.80;99.90;;;;;;5027042;28;20429;-68
2022/08/05 10:25:38;;;;;;;7.57;6.93;;;21.60;99.90;;;;;;5026980;28;20857;-67
2022/08/05 10:28:06;;;;;;;7.57;6.97;;;21.50;99.90;;;;;;5031362;28;20478;-72
2022/08/05 10:30:34;;;;;;;8.80;7.20;;;21.50;99.90;;;;;;5026823;28;20464;-67
2022/08/05 10:33:01;;;;;;;7.93;7.23;;;21.40;99.90;;;;;;5040035;28;20898;-69
2022/08/05 10:35:27;;;;;;;8.60;8.00;;;21.40;99.90;;;;;;5033064;28;20469;-70
2022/08/05 10:37:53;;;;;;;9.90;9.10;;;21.40;99.90;;;;;;5025377;28;20455;-70
2022/08/05 10:40:42;;;;;;;9.93;8.50;;;21.60;99.90;;;;;;5025852;28;20185;-70
2022/08/05 10:43:21;;;;;;;8.90;8.20;;;21.80;99.90;;;;;;5029427;28;20461;-71
2022/08/05 10:45:57;;;;;;;7.97;7.27;;;22.00;99.90;;;;;;5028734;28;20547;-70
2022/08/05 10:48:38;;;;;;;7.10;6.50;;;22.30;99.90;;;;;;5030256;28;20424;-70
2022/08/05 10:51:10;;;;;;;7.53;6.77;;;22.40;99.90;;;;;;5034602;28;20637;-72
2022/08/05 10:54:07;;;;;;;7.93;7.23;;;22.60;99.90;;;;;;5031339;28;20448;-70
2022/08/05 10:56:48;;;;;;;7.90;7.30;;;22.80;99.90;;;;;;5030574;28;20932;-71
2022/08/05 10:59:25;;;;;;;10.07;9.13;;;22.90;99.90;;;;;;5019546;28;20500;-72
2022/08/05 11:02:08;;;;;;;7.67;7.00;;;22.90;99.90;;;;;;5016396;28;20878;-73
2022/08/05 11:04:47;;;;;;;8.77;7.97;;;23.10;99.90;;;;;;5028596;28;20460;-71
2022/08/05 11:07:17;;;;;;;7.37;6.87;;;23.10;99.90;;;;;;5026664;28;20496;-71
2022/08/05 11:09:51;;;;;;;8.67;7.87;;;23.20;99.90;;;;;;5025150;28;20441;-71
2022/08/05 11:12:25;;;;;;;8.03;7.37;;;23.30;99.90;;;;;;5031020;28;20405;-72
2022/08/05 11:15:22;;;;;;;6.17;5.73;;;23.30;99.90;;;;;;5011978;28;20849;-71
2022/08/05 11:17:52;;;;;;;8.80;8.10;;;23.40;99.90;;;;;;5015995;28;20460;-71
2022/08/05 11:20:38;;;;;;;8.83;7.40;;;23.40;99.90;;;;;;5027628;28;20475;-71
2022/08/05 11:23:28;;;;;;;7.90;7.30;;;23.50;99.90;;;;;;5039373;28;20449;-73
2022/08/05 11:26:21;;;;;;;8.80;7.67;;;23.50;99.90;;;;;;5034994;28;20472;-72
2022/08/05 11:28:48;;;;;;;7.90;7.30;;;23.50;99.90;;;;;;5026617;28;20460;-71
2022/08/05 11:31:17;;;;;;;7.80;7.10;;;23.50;99.90;;;;;;5024883;28;20849;-71
2022/08/05 11:33:50;;;;;;;7.23;6.60;;;23.60;99.90;;;;;;5030090;28;20847;-71
2022/08/05 11:36:20;;;;;;;7.30;6.73;;;23.60;99.90;;;;;;5023393;28;20433;-73
2022/08/05 11:38:51;;;;;;;7.57;6.93;;;23.70;99.90;;;;;;5030343;28;20432;-71
2022/08/05 11:41:20;;;;;;;8.57;7.77;;;23.70;99.90;;;;;;5022734;28;20492;-71
2022/08/05 11:44:09;;;;;;;7.70;7.07;;;23.80;99.90;;;;;;5017999;28;20445;-71
2022/08/05 11:46:49;;;;;;;7.77;6.97;;;23.90;99.90;;;;;;5022558;28;20432;-71
2022/08/05 11:49:21;;;;;;;7.07;6.40;;;23.90;99.90;;;;;;5030838;28;20990;-71
2022/08/05 11:51:52;;;;;;;6.33;5.90;;;24.00;99.90;;;;;;5027773;28;20549;-71
2022/08/05 11:54:36;;;;;;;6.87;6.37;;;24.00;99.90;;;;;;5028020;28;20830;-70
2022/08/05 11:57:03;;;;;;;6.03;5.50;;;24.20;99.90;;;;;;5039108;28;20432;-73
2022/08/05 11:59:34;;;;;;;7.63;7.00;;;24.40;99.90;;;;;;5042847;28;20435;-74
2022/08/05 12:02:04;;;;;;;5.93;5.43;;;24.50;99.90;;;;;;5037849;28;20432;-76
2022/08/05 12:04:43;;;;;;;9.50;5.10;;;24.60;99.90;;;;;;5024609;28;20518;-74
2022/08/05 12:07:14;;;;;;;6.90;5.30;;;24.60;99.90;;;;;;5021369;28;20987;-73
2022/08/05 12:09:46;;;;;;;5.57;5.07;;;24.50;99.90;;;;;;5046379;28;20436;-74
2022/08/05 12:12:12;;;;;;;5.13;4.63;;;24.60;99.40;;;;;;5039001;28;20423;-75
2022/08/05 12:14:40;;;;;;;6.80;6.20;;;24.70;99.90;;;;;;5032842;28;21016;-75
2022/08/05 12:17:08;;;;;;;5.07;4.67;;;24.80;99.90;;;;;;5031766;28;20209;-75
2022/08/05 12:19:52;;;;;;;6.50;4.97;;;24.80;99.30;;;;;;5029147;28;20500;-74
2022/08/05 12:22:20;;;;;;;5.80;4.43;;;24.90;99.60;;;;;;5025474;28;20568;-74
2022/08/05 12:24:48;;;;;;;5.23;4.83;;;24.80;98.70;;;;;;5033352;28;20465;-74
2022/08/05 12:27:22;;;;;;;6.07;5.67;;;24.50;98.90;;;;;;5028729;28;20448;-72
2022/08/05 12:30:07;;;;;;;6.30;5.90;;;24.70;97.30;;;;;;5033851;28;20460;-70
2022/08/05 12:32:34;;;;;;;7.40;6.90;;;24.80;96.90;;;;;;5022569;28;20440;-70
2022/08/05 12:35:02;;;;;;;6.10;5.70;;;24.90;98.50;;;;;;5036941;28;20428;-69
2022/08/05 12:37:28;;;;;;;5.87;5.27;;;25.00;99.20;;;;;;5028931;28;20460;-69
2022/08/05 12:39:56;;;;;;;7.43;6.63;;;25.00;97.00;;;;;;5021029;28;20427;-69
2022/08/05 12:42:22;;;;;;;5.23;4.90;;;25.10;97.70;;;;;;5033404;28;20432;-69
2022/08/05 12:44:48;;;;;;;5.43;5.03;;;25.20;96.80;;;;;;5027369;28;20539;-69
2022/08/05 12:47:26;;;;;;;6.47;5.97;;;25.30;96.60;;;;;;5032920;28;20265;-70
2022/08/05 12:49:52;;;;;;;5.63;5.20;;;25.30;96.30;;;;;;5029079;28;20787;-69
2022/08/05 12:52:19;;;;;;;6.17;5.70;;;25.20;94.00;;;;;;5012961;28;20548;-69
2022/08/05 12:54:47;;;;;;;6.70;5.60;;;25.20;95.10;;;;;;5025994;28;20551;-69